Portada
METAR-TAF:

METAR-TAF

Aeroports :

Person County Airport

Roxboro, Carolina del Nord, Estats Units d'Amèrica

latitud: 36-17-06N, longitud: 078-59-03W, altitud: 186 m

Observació

L'informe es va fer fa 18 minuts, a les 23:55 UTC
Vent 4 kt del Sud/Sud-Est
Temperatura 26°C
Humitat 74%
Pressió 1017 hPa
Visibilitat: 16.1 km
Núvols disperses a una alçada de 6000 ft

METAR: KTDF 102355Z AUTO 15004KT 10SM SCT060 26/21 A3002 RMK AO2

Hora: 20:13 (00:13 UTC)


TAF: manca

Observacions i pronòstics meteorològics de més de 4000 aeroports (METAR i TAF).

Les estacions disponibles són els punts grocs i vermells al mapa.

Posi el ratolí al punt desitjat per veure el nom de l'estació.

Feu clic per veure les observacions i els pronòstics meteorològics.

Per canviar el mapa: feu clic els botons verds amb una creu de color negre per apropar; al botó verd amb un guió per allunyar la imatge; o en les fletxes verdes per a mapes adjacents.


METAR-TAF: